sensor_id;sensor_type;location;lat;lon;timestamp;temperature;humidity
41944;DHT22;27636;52.610;13.244;2023-06-24T00:03:16;15.60;99.90
41944;DHT22;27636;52.610;13.244;2023-06-24T00:08:20;15.50;99.90
41944;DHT22;27636;52.610;13.244;2023-06-24T00:13:28;15.40;99.90
41944;DHT22;27636;52.610;13.244;2023-06-24T00:18:32;15.30;99.90
41944;DHT22;27636;52.610;13.244;2023-06-24T00:23:36;15.20;99.90
41944;DHT22;27636;52.610;13.244;2023-06-24T00:28:41;15.10;99.90
41944;DHT22;27636;52.610;13.244;2023-06-24T00:33:44;14.90;99.90
41944;DHT22;27636;52.610;13.244;2023-06-24T00:38:48;15.00;99.90
41944;DHT22;27636;52.610;13.244;2023-06-24T00:43:54;14.90;99.90
41944;DHT22;27636;52.610;13.244;2023-06-24T00:48:57;14.80;99.90
41944;DHT22;27636;52.610;13.244;2023-06-24T00:54:03;14.80;99.90
41944;DHT22;27636;52.610;13.244;2023-06-24T00:59:10;14.70;99.90
41944;DHT22;27636;52.610;13.244;2023-06-24T01:04:17;14.70;99.90
41944;DHT22;27636;52.610;13.244;2023-06-24T01:09:20;14.60;99.90
41944;DHT22;27636;52.610;13.244;2023-06-24T01:14:25;14.70;99.90
41944;DHT22;27636;52.610;13.244;2023-06-24T01:19:44;14.60;99.90
41944;DHT22;27636;52.610;13.244;2023-06-24T01:25:01;14.60;99.90
41944;DHT22;27636;52.610;13.244;2023-06-24T01:30:23;14.50;99.90
41944;DHT22;27636;52.610;13.244;2023-06-24T01:35:33;14.40;99.90
41944;DHT22;27636;52.610;13.244;2023-06-24T01:40:42;14.40;99.90
41944;DHT22;27636;52.610;13.244;2023-06-24T01:45:51;14.30;99.90
41944;DHT22;27636;52.610;13.244;2023-06-24T01:51:00;14.40;99.90
41944;DHT22;27636;52.610;13.244;2023-06-24T01:56:06;14.30;99.90
41944;DHT22;27636;52.610;13.244;2023-06-24T02:01:12;14.40;99.90
41944;DHT22;27636;52.610;13.244;2023-06-24T02:06:19;14.40;99.90
41944;DHT22;27636;52.610;13.244;2023-06-24T02:11:24;14.30;99.90
41944;DHT22;27636;52.610;13.244;2023-06-24T02:16:28;14.50;99.90
41944;DHT22;27636;52.610;13.244;2023-06-24T02:21:34;14.50;99.90
41944;DHT22;27636;52.610;13.244;2023-06-24T02:26:38;14.50;99.90
41944;DHT22;27636;52.610;13.244;2023-06-24T02:31:44;14.40;99.90
41944;DHT22;27636;52.610;13.244;2023-06-24T02:36:50;14.30;99.90
41944;DHT22;27636;52.610;13.244;2023-06-24T02:41:53;14.40;99.90
41944;DHT22;27636;52.610;13.244;2023-06-24T02:46:57;14.20;99.90
41944;DHT22;27636;52.610;13.244;2023-06-24T02:52:04;14.10;99.90
41944;DHT22;27636;52.610;13.244;2023-06-24T02:57:11;14.10;99.90
41944;DHT22;27636;52.610;13.244;2023-06-24T03:02:39;14.00;99.90
41944;DHT22;27636;52.610;13.244;2023-06-24T03:07:46;13.90;99.90
41944;DHT22;27636;52.610;13.244;2023-06-24T03:12:50;13.90;99.90
41944;DHT22;27636;52.610;13.244;2023-06-24T03:17:58;13.90;99.90
41944;DHT22;27636;52.610;13.244;2023-06-24T03:23:05;13.90;99.90
41944;DHT22;27636;52.610;13.244;2023-06-24T03:28:10;14.00;99.90
41944;DHT22;27636;52.610;13.244;2023-06-24T03:33:20;14.10;99.90
41944;DHT22;27636;52.610;13.244;2023-06-24T03:38:25;14.10;99.90
41944;DHT22;27636;52.610;13.244;2023-06-24T03:43:32;14.20;99.90
41944;DHT22;27636;52.610;13.244;2023-06-24T03:48:37;14.20;99.90
41944;DHT22;27636;52.610;13.244;2023-06-24T03:53:43;14.30;99.90
41944;DHT22;27636;52.610;13.244;2023-06-24T03:58:47;14.40;99.90
41944;DHT22;27636;52.610;13.244;2023-06-24T04:03:50;14.60;99.90
41944;DHT22;27636;52.610;13.244;2023-06-24T04:08:56;14.80;99.90
41944;DHT22;27636;52.610;13.244;2023-06-24T04:13:59;14.90;99.90
41944;DHT22;27636;52.610;13.244;2023-06-24T04:19:03;15.00;99.90
41944;DHT22;27636;52.610;13.244;2023-06-24T04:24:07;15.10;99.90
41944;DHT22;27636;52.610;13.244;2023-06-24T04:29:11;15.30;99.90
41944;DHT22;27636;52.610;13.244;2023-06-24T04:34:15;15.30;99.90
41944;DHT22;27636;52.610;13.244;2023-06-24T04:39:19;15.90;99.90
41944;DHT22;27636;52.610;13.244;2023-06-24T04:44:23;16.70;99.90
41944;DHT22;27636;52.610;13.244;2023-06-24T04:49:27;17.00;99.90
41944;DHT22;27636;52.610;13.244;2023-06-24T04:54:33;17.40;99.90
41944;DHT22;27636;52.610;13.244;2023-06-24T04:59:36;18.70;99.90
41944;DHT22;27636;52.610;13.244;2023-06-24T05:04:41;19.80;99.90
41944;DHT22;27636;52.610;13.244;2023-06-24T05:09:47;20.50;99.90
41944;DHT22;27636;52.610;13.244;2023-06-24T05:14:51;20.70;99.90
41944;DHT22;27636;52.610;13.244;2023-06-24T05:19:55;21.60;99.90
41944;DHT22;27636;52.610;13.244;2023-06-24T05:25:00;22.30;99.90
41944;DHT22;27636;52.610;13.244;2023-06-24T05:30:04;22.30;99.90
41944;DHT22;27636;52.610;13.244;2023-06-24T05:35:08;22.90;99.90
41944;DHT22;27636;52.610;13.244;2023-06-24T05:40:13;23.30;99.90
41944;DHT22;27636;52.610;13.244;2023-06-24T05:45:17;24.30;99.90
41944;DHT22;27636;52.610;13.244;2023-06-24T05:50:20;24.80;99.90
41944;DHT22;27636;52.610;13.244;2023-06-24T05:55:25;25.80;99.90
41944;DHT22;27636;52.610;13.244;2023-06-24T06:00:29;26.40;96.00
41944;DHT22;27636;52.610;13.244;2023-06-24T06:05:32;26.50;95.70
41944;DHT22;27636;52.610;13.244;2023-06-24T06:10:38;27.10;92.00
41944;DHT22;27636;52.610;13.244;2023-06-24T06:15:41;27.30;91.00
41944;DHT22;27636;52.610;13.244;2023-06-24T06:20:44;28.10;87.50
41944;DHT22;27636;52.610;13.244;2023-06-24T06:25:50;28.40;86.80
41944;DHT22;27636;52.610;13.244;2023-06-24T06:30:53;28.30;84.70
41944;DHT22;27636;52.610;13.244;2023-06-24T06:35:57;28.30;83.70
41944;DHT22;27636;52.610;13.244;2023-06-24T06:41:02;28.30;83.30
41944;DHT22;27636;52.610;13.244;2023-06-24T06:46:05;29.50;77.90
41944;DHT22;27636;52.610;13.244;2023-06-24T06:51:09;29.00;79.20
41944;DHT22;27636;52.610;13.244;2023-06-24T06:56:18;28.60;81.00
41944;DHT22;27636;52.610;13.244;2023-06-24T07:01:21;28.70;80.20
41944;DHT22;27636;52.610;13.244;2023-06-24T07:06:25;29.40;77.60
41944;DHT22;27636;52.610;13.244;2023-06-24T07:11:30;29.30;75.10
41944;DHT22;27636;52.610;13.244;2023-06-24T07:16:33;28.60;74.10
41944;DHT22;27636;52.610;13.244;2023-06-24T07:21:38;28.10;78.20
41944;DHT22;27636;52.610;13.244;2023-06-24T07:26:43;28.70;79.30
41944;DHT22;27636;52.610;13.244;2023-06-24T07:31:46;28.10;78.50
41944;DHT22;27636;52.610;13.244;2023-06-24T07:36:50;25.50;87.00
41944;DHT22;27636;52.610;13.244;2023-06-24T07:41:55;26.20;87.30
41944;DHT22;27636;52.610;13.244;2023-06-24T07:46:58;26.50;87.80
41944;DHT22;27636;52.610;13.244;2023-06-24T07:52:02;27.90;82.70
41944;DHT22;27636;52.610;13.244;2023-06-24T07:57:07;28.20;78.10
41944;DHT22;27636;52.610;13.244;2023-06-24T08:02:11;28.80;76.80
41944;DHT22;27636;52.610;13.244;2023-06-24T08:07:15;29.20;74.40
41944;DHT22;27636;52.610;13.244;2023-06-24T08:12:20;28.90;72.20
41944;DHT22;27636;52.610;13.244;2023-06-24T08:17:24;29.50;73.70
41944;DHT22;27636;52.610;13.244;2023-06-24T08:22:27;28.70;72.30
41944;DHT22;27636;52.610;13.244;2023-06-24T08:27:32;28.30;72.40
41944;DHT22;27636;52.610;13.244;2023-06-24T08:32:36;29.40;72.60
41944;DHT22;27636;52.610;13.244;2023-06-24T08:37:39;30.10;66.50
41944;DHT22;27636;52.610;13.244;2023-06-24T08:42:44;27.30;73.20
41944;DHT22;27636;52.610;13.244;2023-06-24T08:47:49;27.50;74.20
41944;DHT22;27636;52.610;13.244;2023-06-24T08:52:54;28.00;70.90
41944;DHT22;27636;52.610;13.244;2023-06-24T08:58:00;27.60;74.40
41944;DHT22;27636;52.610;13.244;2023-06-24T09:03:03;27.00;76.30
41944;DHT22;27636;52.610;13.244;2023-06-24T09:08:07;26.60;77.40
41944;DHT22;27636;52.610;13.244;2023-06-24T09:13:14;27.50;71.90
41944;DHT22;27636;52.610;13.244;2023-06-24T09:18:18;27.90;71.50
41944;DHT22;27636;52.610;13.244;2023-06-24T09:23:25;28.80;73.10
41944;DHT22;27636;52.610;13.244;2023-06-24T09:28:34;28.60;68.50
41944;DHT22;27636;52.610;13.244;2023-06-24T09:33:39;28.50;69.40
41944;DHT22;27636;52.610;13.244;2023-06-24T09:38:43;29.20;68.00
41944;DHT22;27636;52.610;13.244;2023-06-24T09:43:51;30.00;62.40
41944;DHT22;27636;52.610;13.244;2023-06-24T09:48:55;29.60;63.10
41944;DHT22;27636;52.610;13.244;2023-06-24T09:54:00;29.70;68.50
41944;DHT22;27636;52.610;13.244;2023-06-24T09:59:06;30.50;64.30
41944;DHT22;27636;52.610;13.244;2023-06-24T10:04:15;30.70;61.10
41944;DHT22;27636;52.610;13.244;2023-06-24T10:09:19;29.20;63.40
41944;DHT22;27636;52.610;13.244;2023-06-24T10:14:25;29.00;66.50
41944;DHT22;27636;52.610;13.244;2023-06-24T10:19:28;28.70;66.20
41944;DHT22;27636;52.610;13.244;2023-06-24T10:24:33;30.30;68.40
41944;DHT22;27636;52.610;13.244;2023-06-24T10:29:39;29.90;61.40
41944;DHT22;27636;52.610;13.244;2023-06-24T10:34:47;28.50;68.60
41944;DHT22;27636;52.610;13.244;2023-06-24T10:39:52;28.80;66.10
41944;DHT22;27636;52.610;13.244;2023-06-24T10:44:59;29.60;67.70
41944;DHT22;27636;52.610;13.244;2023-06-24T10:50:04;29.90;65.60
41944;DHT22;27636;52.610;13.244;2023-06-24T10:55:09;30.10;61.70
41944;DHT22;27636;52.610;13.244;2023-06-24T11:00:14;29.50;62.20
41944;DHT22;27636;52.610;13.244;2023-06-24T11:05:19;29.60;62.40
41944;DHT22;27636;52.610;13.244;2023-06-24T11:10:22;29.60;64.30
41944;DHT22;27636;52.610;13.244;2023-06-24T11:15:29;29.00;63.60
41944;DHT22;27636;52.610;13.244;2023-06-24T11:20:33;28.30;69.50
41944;DHT22;27636;52.610;13.244;2023-06-24T11:25:41;29.30;64.80
41944;DHT22;27636;52.610;13.244;2023-06-24T11:30:46;29.70;65.60
41944;DHT22;27636;52.610;13.244;2023-06-24T11:35:50;29.90;64.80
41944;DHT22;27636;52.610;13.244;2023-06-24T11:40:57;30.60;64.60
41944;DHT22;27636;52.610;13.244;2023-06-24T11:46:03;30.50;59.00
41944;DHT22;27636;52.610;13.244;2023-06-24T11:51:12;31.10;59.90
41944;DHT22;27636;52.610;13.244;2023-06-24T11:56:33;30.40;57.30
41944;DHT22;27636;52.610;13.244;2023-06-24T12:01:41;29.90;63.10
41944;DHT22;27636;52.610;13.244;2023-06-24T12:06:45;31.00;56.70
41944;DHT22;27636;52.610;13.244;2023-06-24T12:11:49;30.70;61.30
41944;DHT22;27636;52.610;13.244;2023-06-24T12:16:55;30.50;57.60
41944;DHT22;27636;52.610;13.244;2023-06-24T12:21:59;30.80;63.70
41944;DHT22;27636;52.610;13.244;2023-06-24T12:27:03;31.00;61.30
41944;DHT22;27636;52.610;13.244;2023-06-24T12:32:10;31.80;56.20
41944;DHT22;27636;52.610;13.244;2023-06-24T12:37:13;30.90;61.40
41944;DHT22;27636;52.610;13.244;2023-06-24T12:42:17;30.80;59.60
41944;DHT22;27636;52.610;13.244;2023-06-24T12:47:22;30.90;55.60
41944;DHT22;27636;52.610;13.244;2023-06-24T12:52:26;30.60;59.40
41944;DHT22;27636;52.610;13.244;2023-06-24T12:57:30;30.90;58.20
41944;DHT22;27636;52.610;13.244;2023-06-24T13:02:35;30.50;59.60
41944;DHT22;27636;52.610;13.244;2023-06-24T13:07:40;30.40;59.60
41944;DHT22;27636;52.610;13.244;2023-06-24T13:12:43;30.20;60.40
41944;DHT22;27636;52.610;13.244;2023-06-24T13:17:48;30.20;57.30
41944;DHT22;27636;52.610;13.244;2023-06-24T13:22:52;30.40;58.60
41944;DHT22;27636;52.610;13.244;2023-06-24T13:27:56;30.30;55.70
41944;DHT22;27636;52.610;13.244;2023-06-24T13:33:02;29.40;60.00
41944;DHT22;27636;52.610;13.244;2023-06-24T13:38:06;29.20;63.60
41944;DHT22;27636;52.610;13.244;2023-06-24T13:43:11;29.40;60.90
41944;DHT22;27636;52.610;13.244;2023-06-24T13:48:19;29.60;60.90
41944;DHT22;27636;52.610;13.244;2023-06-24T13:53:22;29.60;62.20
41944;DHT22;27636;52.610;13.244;2023-06-24T13:58:26;29.40;60.50
41944;DHT22;27636;52.610;13.244;2023-06-24T14:03:31;29.50;59.80
41944;DHT22;27636;52.610;13.244;2023-06-24T14:08:34;30.00;60.00
41944;DHT22;27636;52.610;13.244;2023-06-24T14:13:38;29.80;58.60
41944;DHT22;27636;52.610;13.244;2023-06-24T14:18:43;29.50;63.30
41944;DHT22;27636;52.610;13.244;2023-06-24T14:23:47;29.70;61.30
41944;DHT22;27636;52.610;13.244;2023-06-24T14:28:51;29.70;62.00
41944;DHT22;27636;52.610;13.244;2023-06-24T14:33:56;29.50;60.30
41944;DHT22;27636;52.610;13.244;2023-06-24T14:38:59;29.70;60.10
41944;DHT22;27636;52.610;13.244;2023-06-24T14:44:03;29.60;60.00
41944;DHT22;27636;52.610;13.244;2023-06-24T14:49:08;29.60;60.30
41944;DHT22;27636;52.610;13.244;2023-06-24T14:54:11;29.90;58.90
41944;DHT22;27636;52.610;13.244;2023-06-24T14:59:15;29.90;60.20
41944;DHT22;27636;52.610;13.244;2023-06-24T15:04:20;30.20;59.20
41944;DHT22;27636;52.610;13.244;2023-06-24T15:09:26;29.90;59.10
41944;DHT22;27636;52.610;13.244;2023-06-24T15:14:29;30.00;58.70
41944;DHT22;27636;52.610;13.244;2023-06-24T15:19:34;30.30;57.20
41944;DHT22;27636;52.610;13.244;2023-06-24T15:24:38;29.70;59.70
41944;DHT22;27636;52.610;13.244;2023-06-24T15:29:42;29.40;60.60
41944;DHT22;27636;52.610;13.244;2023-06-24T15:34:47;29.90;59.30
41944;DHT22;27636;52.610;13.244;2023-06-24T15:39:51;29.50;62.30
41944;DHT22;27636;52.610;13.244;2023-06-24T15:44:57;29.50;59.00
41944;DHT22;27636;52.610;13.244;2023-06-24T15:50:02;29.50;58.50
41944;DHT22;27636;52.610;13.244;2023-06-24T15:55:07;29.50;59.70
41944;DHT22;27636;52.610;13.244;2023-06-24T16:00:14;29.90;59.20
41944;DHT22;27636;52.610;13.244;2023-06-24T16:05:20;29.80;59.70
41944;DHT22;27636;52.610;13.244;2023-06-24T16:10:24;29.40;59.50
41944;DHT22;27636;52.610;13.244;2023-06-24T16:15:29;29.50;59.20
41944;DHT22;27636;52.610;13.244;2023-06-24T16:20:34;28.70;60.30
41944;DHT22;27636;52.610;13.244;2023-06-24T16:25:40;28.00;62.00
41944;DHT22;27636;52.610;13.244;2023-06-24T16:30:44;27.40;67.90
41944;DHT22;27636;52.610;13.244;2023-06-24T16:35:49;27.60;65.20
41944;DHT22;27636;52.610;13.244;2023-06-24T16:40:53;27.70;62.90
41944;DHT22;27636;52.610;13.244;2023-06-24T16:45:57;28.70;62.20
41944;DHT22;27636;52.610;13.244;2023-06-24T16:51:03;29.00;62.30
41944;DHT22;27636;52.610;13.244;2023-06-24T16:56:06;27.90;65.50
41944;DHT22;27636;52.610;13.244;2023-06-24T17:01:10;27.60;66.70
41944;DHT22;27636;52.610;13.244;2023-06-24T17:06:15;28.10;63.40
41944;DHT22;27636;52.610;13.244;2023-06-24T17:11:19;27.70;62.50
41944;DHT22;27636;52.610;13.244;2023-06-24T17:16:23;27.50;62.60
41944;DHT22;27636;52.610;13.244;2023-06-24T17:21:28;27.60;64.60
41944;DHT22;27636;52.610;13.244;2023-06-24T17:26:32;27.70;63.90
41944;DHT22;27636;52.610;13.244;2023-06-24T17:31:36;27.50;64.00
41944;DHT22;27636;52.610;13.244;2023-06-24T17:36:41;27.30;63.60
41944;DHT22;27636;52.610;13.244;2023-06-24T17:41:45;26.70;65.20
41944;DHT22;27636;52.610;13.244;2023-06-24T17:46:49;26.10;68.50
41944;DHT22;27636;52.610;13.244;2023-06-24T17:51:54;25.40;72.00
41944;DHT22;27636;52.610;13.244;2023-06-24T17:56:58;24.70;75.00
41944;DHT22;27636;52.610;13.244;2023-06-24T18:02:02;24.40;75.70
41944;DHT22;27636;52.610;13.244;2023-06-24T18:07:09;24.00;81.30
41944;DHT22;27636;52.610;13.244;2023-06-24T18:12:13;23.70;82.20
41944;DHT22;27636;52.610;13.244;2023-06-24T18:17:17;23.70;82.10
41944;DHT22;27636;52.610;13.244;2023-06-24T18:22:22;23.30;83.90
41944;DHT22;27636;52.610;13.244;2023-06-24T18:27:26;23.00;86.70
41944;DHT22;27636;52.610;13.244;2023-06-24T18:32:30;22.80;88.00
41944;DHT22;27636;52.610;13.244;2023-06-24T18:37:35;22.50;90.30
41944;DHT22;27636;52.610;13.244;2023-06-24T18:42:39;22.30;92.00
41944;DHT22;27636;52.610;13.244;2023-06-24T18:47:43;22.10;94.00
41944;DHT22;27636;52.610;13.244;2023-06-24T18:52:47;21.90;95.50
41944;DHT22;27636;52.610;13.244;2023-06-24T18:57:54;21.70;98.00
41944;DHT22;27636;52.610;13.244;2023-06-24T19:02:57;21.20;98.60
41944;DHT22;27636;52.610;13.244;2023-06-24T19:08:02;21.00;99.90
41944;DHT22;27636;52.610;13.244;2023-06-24T19:13:08;20.70;99.90
41944;DHT22;27636;52.610;13.244;2023-06-24T19:18:17;20.60;99.90
41944;DHT22;27636;52.610;13.244;2023-06-24T19:23:26;20.20;99.90
41944;DHT22;27636;52.610;13.244;2023-06-24T19:28:30;20.00;99.90
41944;DHT22;27636;52.610;13.244;2023-06-24T19:33:34;19.90;99.90
41944;DHT22;27636;52.610;13.244;2023-06-24T19:38:54;19.80;99.90
41944;DHT22;27636;52.610;13.244;2023-06-24T19:44:03;19.50;99.90
41944;DHT22;27636;52.610;13.244;2023-06-24T19:49:08;19.40;99.90
41944;DHT22;27636;52.610;13.244;2023-06-24T19:54:13;19.20;99.90
41944;DHT22;27636;52.610;13.244;2023-06-24T19:59:17;18.90;99.90
41944;DHT22;27636;52.610;13.244;2023-06-24T20:04:20;18.70;99.90
41944;DHT22;27636;52.610;13.244;2023-06-24T20:09:25;18.60;99.90
41944;DHT22;27636;52.610;13.244;2023-06-24T20:14:29;18.50;99.90
41944;DHT22;27636;52.610;13.244;2023-06-24T20:19:32;18.50;99.90
41944;DHT22;27636;52.610;13.244;2023-06-24T20:24:37;18.40;99.90
41944;DHT22;27636;52.610;13.244;2023-06-24T20:29:41;18.30;99.90
41944;DHT22;27636;52.610;13.244;2023-06-24T20:34:45;18.20;99.90
41944;DHT22;27636;52.610;13.244;2023-06-24T20:39:49;18.00;99.90
41944;DHT22;27636;52.610;13.244;2023-06-24T20:44:53;17.90;99.90
41944;DHT22;27636;52.610;13.244;2023-06-24T20:49:56;17.70;99.90
41944;DHT22;27636;52.610;13.244;2023-06-24T20:55:01;17.50;99.90
41944;DHT22;27636;52.610;13.244;2023-06-24T21:00:06;17.40;99.90
41944;DHT22;27636;52.610;13.244;2023-06-24T21:05:10;17.30;99.90
41944;DHT22;27636;52.610;13.244;2023-06-24T21:10:15;17.30;99.90
41944;DHT22;27636;52.610;13.244;2023-06-24T21:15:19;17.10;99.90
41944;DHT22;27636;52.610;13.244;2023-06-24T21:20:23;17.10;99.90
41944;DHT22;27636;52.610;13.244;2023-06-24T21:25:28;17.00;99.90
41944;DHT22;27636;52.610;13.244;2023-06-24T21:30:31;16.80;99.90
41944;DHT22;27636;52.610;13.244;2023-06-24T21:35:35;16.60;99.90
41944;DHT22;27636;52.610;13.244;2023-06-24T21:40:40;16.60;99.90
41944;DHT22;27636;52.610;13.244;2023-06-24T21:45:44;16.70;99.90
41944;DHT22;27636;52.610;13.244;2023-06-24T21:50:47;16.60;99.90
41944;DHT22;27636;52.610;13.244;2023-06-24T21:55:52;16.50;99.90
41944;DHT22;27636;52.610;13.244;2023-06-24T22:00:55;16.30;99.90
41944;DHT22;27636;52.610;13.244;2023-06-24T22:05:59;16.20;99.90
41944;DHT22;27636;52.610;13.244;2023-06-24T22:11:05;16.20;99.90
41944;DHT22;27636;52.610;13.244;2023-06-24T22:16:08;16.20;99.90
41944;DHT22;27636;52.610;13.244;2023-06-24T22:21:12;16.10;99.90
41944;DHT22;27636;52.610;13.244;2023-06-24T22:26:18;16.00;99.90
41944;DHT22;27636;52.610;13.244;2023-06-24T22:31:21;16.00;99.90
41944;DHT22;27636;52.610;13.244;2023-06-24T22:36:26;16.00;99.90
41944;DHT22;27636;52.610;13.244;2023-06-24T22:41:31;15.80;99.90
41944;DHT22;27636;52.610;13.244;2023-06-24T22:46:35;15.70;99.90
41944;DHT22;27636;52.610;13.244;2023-06-24T22:51:42;15.60;99.90
41944;DHT22;27636;52.610;13.244;2023-06-24T22:56:47;15.60;99.90
41944;DHT22;27636;52.610;13.244;2023-06-24T23:01:51;15.50;99.90
41944;DHT22;27636;52.610;13.244;2023-06-24T23:06:54;15.50;99.90
41944;DHT22;27636;52.610;13.244;2023-06-24T23:12:02;15.50;99.90
41944;DHT22;27636;52.610;13.244;2023-06-24T23:17:06;15.40;99.90
41944;DHT22;27636;52.610;13.244;2023-06-24T23:22:12;15.40;99.90
41944;DHT22;27636;52.610;13.244;2023-06-24T23:27:19;15.40;99.90
41944;DHT22;27636;52.610;13.244;2023-06-24T23:32:24;15.50;99.90
41944;DHT22;27636;52.610;13.244;2023-06-24T23:37:28;15.50;99.90
41944;DHT22;27636;52.610;13.244;2023-06-24T23:42:36;15.50;99.90
41944;DHT22;27636;52.610;13.244;2023-06-24T23:47:40;15.50;99.90
41944;DHT22;27636;52.610;13.244;2023-06-24T23:52:44;15.50;99.90
41944;DHT22;27636;52.610;13.244;2023-06-24T23:57:49;15.50;99.90
